createdAt,value
2022-10-23T00:01:24.616Z,9.40
2022-10-23T00:03:54.358Z,9.07
2022-10-23T00:06:24.792Z,14.90
2022-10-23T00:08:53.419Z,9.13
2022-10-23T00:11:24.509Z,9.90
2022-10-23T00:13:55.448Z,7.40
2022-10-23T00:16:24.132Z,6.80
2022-10-23T00:18:52.669Z,6.97
2022-10-23T00:21:21.842Z,7.77
2022-10-23T00:23:52.238Z,6.43
2022-10-23T00:26:21.109Z,8.30
2022-10-23T00:28:52.305Z,7.10
2022-10-23T00:31:22.279Z,8.07
2022-10-23T00:33:51.236Z,5.13
2022-10-23T00:36:21.611Z,9.63
2022-10-23T00:38:52.218Z,8.23
2022-10-23T00:41:22.783Z,4.63
2022-10-23T00:44:01.605Z,6.00
2022-10-23T00:46:30.490Z,6.93
2022-10-23T00:48:59.685Z,4.80
2022-10-23T00:51:31.236Z,5.37
2022-10-23T00:54:22.806Z,6.17
2022-10-23T00:56:50.742Z,5.23
2022-10-23T00:59:19.234Z,4.70
2022-10-23T01:01:48.440Z,7.23
2022-10-23T01:04:17.096Z,7.67
2022-10-23T01:06:51.953Z,7.57
2022-10-23T01:09:27.957Z,6.80
2022-10-23T01:11:59.386Z,5.90
2022-10-23T01:14:33.148Z,5.63
2022-10-23T01:17:05.220Z,5.50
2022-10-23T01:19:48.330Z,6.27
2022-10-23T01:22:29.646Z,7.00
2022-10-23T01:25:03.119Z,8.30
2022-10-23T01:27:34.520Z,5.30
2022-10-23T01:30:06.993Z,5.43
2022-10-23T01:32:48.034Z,5.47
2022-10-23T01:35:21.015Z,6.33
2022-10-23T01:37:59.315Z,8.30
2022-10-23T01:40:34.108Z,7.60
2022-10-23T01:43:08.026Z,5.30
2022-10-23T01:45:41.301Z,4.73
2022-10-23T01:48:15.145Z,6.13
2022-10-23T01:50:45.493Z,6.13
2022-10-23T01:53:14.141Z,5.70
2022-10-23T01:55:43.400Z,7.77
2022-10-23T01:58:21.135Z,5.60
2022-10-23T02:00:52.048Z,6.70
2022-10-23T02:03:21.500Z,4.57
2022-10-23T02:05:50.081Z,6.50
2022-10-23T02:08:18.652Z,5.77
2022-10-23T02:10:52.891Z,9.63
2022-10-23T02:13:27.422Z,5.43
2022-10-23T02:16:01.429Z,6.93
2022-10-23T02:18:35.624Z,7.33
2022-10-23T02:21:08.346Z,8.60
2022-10-23T02:23:41.563Z,9.00
2022-10-23T02:26:13.763Z,8.37
2022-10-23T02:28:47.131Z,4.80
2022-10-23T02:31:18.330Z,8.67
2022-10-23T02:33:47.562Z,6.30
2022-10-23T02:36:16.708Z,11.33
2022-10-23T02:38:46.348Z,9.73
2022-10-23T02:41:22.301Z,5.50
2022-10-23T02:44:03.780Z,7.30
2022-10-23T02:46:38.124Z,11.33
2022-10-23T02:49:12.663Z,12.80
2022-10-23T02:51:50.232Z,15.73
2022-10-23T02:54:33.108Z,29.73
2022-10-23T02:57:05.114Z,22.23
2022-10-23T02:59:38.139Z,29.60
2022-10-23T03:02:10.540Z,57.67
2022-10-23T03:04:39.820Z,57.77
2022-10-23T03:07:11.938Z,53.33
2022-10-23T03:09:40.619Z,34.73
2022-10-23T03:12:09.221Z,56.40
2022-10-23T03:14:39.924Z,48.77
2022-10-23T03:17:10.469Z,46.00
2022-10-23T03:19:39.115Z,25.30
2022-10-23T03:22:07.640Z,30.30
2022-10-23T03:24:36.193Z,25.37
2022-10-23T03:27:05.029Z,19.07
2022-10-23T03:29:34.096Z,15.87
2022-10-23T03:32:04.101Z,20.57
2022-10-23T03:34:32.848Z,15.50
2022-10-23T03:37:01.776Z,13.37
2022-10-23T03:39:30.477Z,21.13
2022-10-23T03:41:58.962Z,19.83
2022-10-23T03:44:27.555Z,21.50
2022-10-23T03:46:56.344Z,23.20
2022-10-23T03:49:26.236Z,19.77
2022-10-23T03:51:54.923Z,34.20
2022-10-23T03:54:24.634Z,21.77
2022-10-23T03:56:56.550Z,28.03
2022-10-23T03:59:26.221Z,27.60
2022-10-23T04:01:55.471Z,68.07
2022-10-23T04:04:27.379Z,56.67
2022-10-23T04:06:55.879Z,77.77
2022-10-23T04:09:24.615Z,51.13
2022-10-23T04:11:53.234Z,56.43
2022-10-23T04:14:21.735Z,67.03
2022-10-23T04:16:50.219Z,117.40
2022-10-23T04:19:18.746Z,99.63
2022-10-23T04:21:49.350Z,85.20
2022-10-23T04:24:17.891Z,105.57
2022-10-23T04:26:46.431Z,126.87
2022-10-23T04:29:14.912Z,149.00
2022-10-23T04:31:43.422Z,111.30
2022-10-23T04:34:11.942Z,138.57
2022-10-23T04:36:40.733Z,129.43
2022-10-23T04:39:12.934Z,68.87
2022-10-23T04:41:41.765Z,174.40
2022-10-23T04:44:10.497Z,68.57
2022-10-23T04:46:40.371Z,94.97
2022-10-23T04:49:09.161Z,83.83
2022-10-23T04:51:56.398Z,81.37
2022-10-23T04:54:44.826Z,77.33
2022-10-23T04:57:31.276Z,90.33
2022-10-23T05:00:02.569Z,80.57
2022-10-23T05:02:37.559Z,76.77
2022-10-23T05:05:07.587Z,69.03
2022-10-23T05:07:36.868Z,26.60
2022-10-23T05:10:30.666Z,29.07
2022-10-23T05:13:14.013Z,23.43
2022-10-23T05:18:15.159Z,25.07
2022-10-23T05:20:45.841Z,23.00
2022-10-23T05:23:16.263Z,20.90
2022-10-23T05:25:55.225Z,16.33
2022-10-23T05:28:24.027Z,19.60
2022-10-23T05:30:53.003Z,10.77
2022-10-23T05:33:26.142Z,17.63
2022-10-23T05:35:54.781Z,66.40
2022-10-23T05:38:24.432Z,18.30
2022-10-23T05:40:53.227Z,27.37
2022-10-23T05:43:26.939Z,37.80
2022-10-23T05:46:09.927Z,24.97
2022-10-23T05:49:12.516Z,25.07
2022-10-23T05:51:55.271Z,20.73
2022-10-23T05:54:52.003Z,10.97
2022-10-23T05:57:39.500Z,15.17
2022-10-23T06:00:14.170Z,14.93
2022-10-23T06:02:42.808Z,10.83
2022-10-23T06:05:50.541Z,11.00
2022-10-23T06:08:24.300Z,8.63
2022-10-23T06:10:53.056Z,21.07
2022-10-23T06:13:21.610Z,14.80
2022-10-23T06:15:51.586Z,29.00
2022-10-23T06:18:22.428Z,18.07
2022-10-23T06:20:57.837Z,6.07
2022-10-23T06:23:28.348Z,5.77
2022-10-23T06:26:25.938Z,11.70
2022-10-23T06:29:08.810Z,12.33
2022-10-23T06:31:39.293Z,25.33
2022-10-23T06:34:07.952Z,7.33
2022-10-23T06:36:37.953Z,8.67
2022-10-23T06:39:29.787Z,14.00
2022-10-23T06:42:15.141Z,21.77
2022-10-23T06:44:55.730Z,21.17
2022-10-23T06:47:45.458Z,14.73
2022-10-23T06:50:32.706Z,6.00
2022-10-23T06:53:07.254Z,17.10
2022-10-23T06:55:40.435Z,8.50
2022-10-23T06:58:11.396Z,5.37
2022-10-23T07:00:55.413Z,6.70
2022-10-23T07:03:25.415Z,5.80
2022-10-23T07:05:54.469Z,7.50
2022-10-23T07:08:23.902Z,5.53
2022-10-23T07:10:54.824Z,6.47
2022-10-23T07:13:25.026Z,5.53
2022-10-23T07:16:00.795Z,6.27
2022-10-23T07:18:31.188Z,6.63
2022-10-23T07:21:18.865Z,5.37
2022-10-23T07:23:47.711Z,5.77
2022-10-23T07:26:17.737Z,5.00
2022-10-23T07:28:47.347Z,5.40
2022-10-23T07:31:25.669Z,4.73
2022-10-23T07:34:16.587Z,4.93
2022-10-23T07:36:47.666Z,4.90
2022-10-23T07:39:16.202Z,5.70
2022-10-23T07:41:52.179Z,4.60
2022-10-23T07:44:23.075Z,6.30
2022-10-23T07:46:54.155Z,3.90
2022-10-23T07:49:24.463Z,6.07
2022-10-23T07:51:54.133Z,4.90
2022-10-23T07:54:23.048Z,4.40
2022-10-23T07:57:18.463Z,3.63
2022-10-23T07:59:50.575Z,3.50
2022-10-23T08:02:23.044Z,5.87
2022-10-23T08:04:53.088Z,4.10
2022-10-23T08:07:29.318Z,6.43
2022-10-23T08:10:01.731Z,5.33
2022-10-23T08:12:31.568Z,3.00
2022-10-23T08:15:00.145Z,3.77
2022-10-23T08:17:36.826Z,3.43
2022-10-23T08:20:15.378Z,2.40
2022-10-23T08:22:46.061Z,3.90
2022-10-23T08:25:24.917Z,3.70
2022-10-23T08:27:54.940Z,3.77
2022-10-23T08:30:23.796Z,3.47
2022-10-23T08:32:53.917Z,4.07
2022-10-23T08:35:23.820Z,3.43
2022-10-23T08:37:52.541Z,3.33
2022-10-23T08:40:23.998Z,3.13
2022-10-23T08:43:16.594Z,4.43
2022-10-23T08:46:04.184Z,4.13
2022-10-23T08:48:58.033Z,4.30
2022-10-23T08:51:52.173Z,4.13
2022-10-23T08:54:23.258Z,4.30
2022-10-23T08:56:54.700Z,3.70
2022-10-23T08:59:28.181Z,4.57
2022-10-23T09:02:00.141Z,5.17
2022-10-23T09:04:29.450Z,4.40
2022-10-23T09:07:06.490Z,4.50
2022-10-23T09:09:48.249Z,5.00
2022-10-23T09:12:18.061Z,5.00
2022-10-23T09:14:58.654Z,5.27
2022-10-23T09:17:29.025Z,4.80
2022-10-23T09:20:03.121Z,5.63
2022-10-23T09:22:33.285Z,5.33
2022-10-23T09:25:01.773Z,5.63
2022-10-23T09:27:30.343Z,8.00
2022-10-23T09:29:59.409Z,6.43
2022-10-23T09:32:35.506Z,6.27
2022-10-23T09:35:04.848Z,4.70
2022-10-23T09:37:35.910Z,5.63
2022-10-23T09:40:20.609Z,6.43
2022-10-23T09:42:54.428Z,4.83
2022-10-23T09:45:25.068Z,6.23
2022-10-23T09:48:12.372Z,5.40
2022-10-23T09:50:48.487Z,4.43
2022-10-23T09:53:23.107Z,4.17
2022-10-23T09:55:53.608Z,4.67
2022-10-23T09:58:28.737Z,3.73
2022-10-23T10:00:58.006Z,4.00
2022-10-23T10:03:51.534Z,4.03
2022-10-23T10:06:25.839Z,4.50
2022-10-23T10:08:57.317Z,4.93
2022-10-23T10:11:31.372Z,3.53
2022-10-23T10:14:06.818Z,7.20
2022-10-23T10:16:44.335Z,2.93
2022-10-23T10:19:22.850Z,3.10
2022-10-23T10:21:56.246Z,2.93
2022-10-23T10:24:31.727Z,3.17
2022-10-23T10:27:07.339Z,3.20
2022-10-23T10:29:49.496Z,4.07
2022-10-23T10:32:27.350Z,3.43
2022-10-23T10:35:00.096Z,4.17
2022-10-23T10:37:38.364Z,2.97
2022-10-23T10:40:15.390Z,4.20
2022-10-23T10:42:58.732Z,3.40
2022-10-23T10:45:34.234Z,5.00
2022-10-23T10:48:26.029Z,3.10
2022-10-23T10:51:18.096Z,2.30
2022-10-23T10:53:59.250Z,3.10
2022-10-23T10:56:31.575Z,5.77
2022-10-23T10:59:03.018Z,3.07
2022-10-23T11:01:38.764Z,2.40
2022-10-23T11:04:15.766Z,2.47
2022-10-23T11:06:46.706Z,3.70
2022-10-23T11:09:21.035Z,2.97
2022-10-23T11:11:51.829Z,2.30
2022-10-23T11:14:23.492Z,3.53
2022-10-23T11:16:53.245Z,2.67
2022-10-23T11:19:24.600Z,4.10
2022-10-23T11:21:59.434Z,3.03
2022-10-23T11:24:50.794Z,2.40
2022-10-23T11:27:32.865Z,2.87
2022-10-23T11:30:18.747Z,2.90
2022-10-23T11:33:18.184Z,5.43
2022-10-23T11:35:57.213Z,3.03
2022-10-23T11:38:28.229Z,2.70
2022-10-23T11:40:58.537Z,5.70
2022-10-23T11:43:29.845Z,2.77
2022-10-23T11:45:59.024Z,3.47
2022-10-23T11:48:38.420Z,3.03
2022-10-23T11:51:07.631Z,4.37
2022-10-23T11:53:41.346Z,3.27
2022-10-23T11:56:28.128Z,3.53
2022-10-23T11:59:00.159Z,3.70
2022-10-23T12:01:37.135Z,2.40
2022-10-23T12:04:18.856Z,4.30
2022-10-23T12:06:49.482Z,3.87
2022-10-23T12:09:27.934Z,2.70
2022-10-23T12:12:18.454Z,3.67
2022-10-23T12:14:50.261Z,3.83
2022-10-23T12:17:30.532Z,3.73
2022-10-23T12:20:19.436Z,3.97
2022-10-23T12:22:55.956Z,3.20
2022-10-23T12:25:27.455Z,3.23
2022-10-23T12:28:03.557Z,3.73
2022-10-23T12:30:41.192Z,3.97
2022-10-23T12:33:20.200Z,4.60
2022-10-23T12:36:24.106Z,3.77
2022-10-23T12:38:54.730Z,3.20
2022-10-23T12:41:26.257Z,3.30
2022-10-23T12:43:56.426Z,9.83
2022-10-23T12:46:39.179Z,4.13
2022-10-23T12:49:16.223Z,3.67
2022-10-23T12:51:44.888Z,3.70
2022-10-23T12:54:18.392Z,3.87
2022-10-23T12:56:47.711Z,3.83
2022-10-23T12:59:18.289Z,3.77
2022-10-23T13:01:52.611Z,4.80
2022-10-23T13:04:29.756Z,3.20
2022-10-23T13:07:00.350Z,3.40
2022-10-23T13:09:32.221Z,3.17
2022-10-23T13:12:35.159Z,3.33
2022-10-23T13:15:17.167Z,3.90
2022-10-23T13:18:01.509Z,2.80
2022-10-23T13:20:31.704Z,3.00
2022-10-23T13:23:03.345Z,2.80
2022-10-23T13:25:33.873Z,3.43
2022-10-23T13:28:24.931Z,2.90
2022-10-23T13:31:09.206Z,3.27
2022-10-23T13:33:40.433Z,2.90
2022-10-23T13:36:22.845Z,4.60
2022-10-23T13:39:01.845Z,3.37
2022-10-23T13:41:35.148Z,3.87
2022-10-23T13:44:03.853Z,3.20
2022-10-23T13:46:32.464Z,3.70
2022-10-23T13:49:02.783Z,3.50
2022-10-23T13:51:35.055Z,3.70
2022-10-23T13:54:06.323Z,4.27
2022-10-23T13:56:35.364Z,4.17
2022-10-23T13:59:03.907Z,3.40
2022-10-23T14:01:35.923Z,3.63
2022-10-23T14:04:07.035Z,4.60
2022-10-23T14:06:37.501Z,3.90
2022-10-23T14:09:07.404Z,3.80
2022-10-23T14:11:36.171Z,7.53
2022-10-23T14:14:05.395Z,3.70
2022-10-23T14:16:34.022Z,3.47
2022-10-23T14:19:02.612Z,4.87
2022-10-23T14:21:32.651Z,5.30
2022-10-23T14:24:01.311Z,4.27
2022-10-23T14:26:30.474Z,5.10
2022-10-23T14:29:02.430Z,3.50
2022-10-23T14:31:35.772Z,3.43
2022-10-23T14:34:04.270Z,4.17
2022-10-23T14:36:43.290Z,3.53
2022-10-23T14:39:18.626Z,4.30
2022-10-23T14:41:47.113Z,3.47
2022-10-23T14:44:15.588Z,3.67
2022-10-23T14:46:44.097Z,4.00
2022-10-23T14:49:12.649Z,8.10
2022-10-23T14:51:42.521Z,5.60
2022-10-23T14:54:11.092Z,8.57
2022-10-23T14:56:40.793Z,4.40
2022-10-23T14:59:10.727Z,4.63
2022-10-23T15:01:43.795Z,5.00
2022-10-23T15:04:17.228Z,4.03
2022-10-23T15:06:47.761Z,6.33
2022-10-23T15:09:16.437Z,4.67
2022-10-23T15:11:44.874Z,4.77
2022-10-23T15:14:13.812Z,5.67
2022-10-23T15:16:42.716Z,5.00
2022-10-23T15:19:15.271Z,4.37
2022-10-23T15:21:49.339Z,8.10
2022-10-23T15:24:18.243Z,7.63
2022-10-23T15:26:46.803Z,4.63
2022-10-23T15:29:15.851Z,4.53
2022-10-23T15:31:47.280Z,5.57
2022-10-23T15:34:18.084Z,15.33
2022-10-23T15:36:48.488Z,8.40
2022-10-23T15:39:19.188Z,10.70
2022-10-23T15:41:48.394Z,7.10
2022-10-23T15:44:19.630Z,7.20
2022-10-23T15:46:48.352Z,7.53
2022-10-23T15:49:16.989Z,7.97
2022-10-23T15:51:46.091Z,10.70
2022-10-23T15:54:18.960Z,8.30
2022-10-23T15:56:48.959Z,8.63
2022-10-23T15:59:18.066Z,10.73
2022-10-23T16:01:46.741Z,7.83
2022-10-23T16:04:16.190Z,8.37
2022-10-23T16:06:44.946Z,9.40
2022-10-23T16:09:13.685Z,9.33
2022-10-23T16:11:44.437Z,10.20
2022-10-23T16:14:14.216Z,7.83
2022-10-23T16:16:42.715Z,10.10
2022-10-23T16:19:11.521Z,8.13
2022-10-23T16:21:40.285Z,9.40
2022-10-23T16:24:10.141Z,8.80
2022-10-23T16:26:39.500Z,9.00
2022-10-23T16:29:10.941Z,8.83
2022-10-23T16:31:39.612Z,8.40
2022-10-23T16:34:08.145Z,8.97
2022-10-23T16:36:39.212Z,10.43
2022-10-23T16:39:26.242Z,8.80
2022-10-23T16:42:13.398Z,9.07
2022-10-23T16:45:11.974Z,13.10
2022-10-23T16:47:40.524Z,11.50
2022-10-23T16:50:09.385Z,10.47
2022-10-23T16:52:37.995Z,8.90
2022-10-23T16:55:07.315Z,8.30
2022-10-23T16:57:36.087Z,10.00
2022-10-23T17:00:06.344Z,9.30
2022-10-23T17:02:36.353Z,8.53
2022-10-23T17:05:05.470Z,7.87
2022-10-23T17:07:34.147Z,12.03
2022-10-23T17:10:02.796Z,11.07
2022-10-23T17:12:31.446Z,9.10
2022-10-23T17:15:00.659Z,10.00
2022-10-23T17:17:29.393Z,11.80
2022-10-23T17:19:59.388Z,10.73
2022-10-23T17:22:28.131Z,11.43
2022-10-23T17:24:56.742Z,8.77
2022-10-23T17:27:25.238Z,9.30
2022-10-23T17:29:53.815Z,10.67
2022-10-23T17:34:56.270Z,9.47
2022-10-23T17:37:26.159Z,10.30
2022-10-23T17:39:54.746Z,11.23
2022-10-23T17:42:23.307Z,10.20
2022-10-23T17:44:51.804Z,11.03
2022-10-23T17:47:20.279Z,9.43
2022-10-23T17:49:48.765Z,10.87
2022-10-23T17:52:17.395Z,9.40
2022-10-23T17:54:47.389Z,11.07
2022-10-23T17:57:15.940Z,11.47
2022-10-23T17:59:44.557Z,12.07
2022-10-23T18:02:14.052Z,13.67
2022-10-23T18:04:42.666Z,10.23
2022-10-23T18:07:11.179Z,11.27
2022-10-23T18:09:40.212Z,10.23
2022-10-23T18:12:10.186Z,12.80
2022-10-23T18:14:38.701Z,11.60
2022-10-23T18:17:07.279Z,13.23
2022-10-23T18:19:36.534Z,12.83
2022-10-23T18:22:05.205Z,11.13
2022-10-23T18:24:33.778Z,11.93
2022-10-23T18:27:02.366Z,11.90
2022-10-23T18:29:32.407Z,11.10
2022-10-23T18:32:01.056Z,11.83
2022-10-23T18:34:29.630Z,13.97
2022-10-23T18:36:58.427Z,10.23
2022-10-23T18:39:27.237Z,11.10
2022-10-23T18:41:57.527Z,11.60
2022-10-23T18:44:29.112Z,13.80
2022-10-23T18:47:00.110Z,10.97
2022-10-23T18:49:29.126Z,14.37
2022-10-23T18:51:58.318Z,13.60
2022-10-23T18:54:26.816Z,10.37
2022-10-23T18:56:55.386Z,12.37
2022-10-23T18:59:24.225Z,9.43
2022-10-23T19:01:53.306Z,11.50
2022-10-23T19:04:23.311Z,9.97
2022-10-23T19:06:52.245Z,10.53
2022-10-23T19:09:21.199Z,9.77
2022-10-23T19:11:51.037Z,10.53
2022-10-23T19:14:19.705Z,12.50
2022-10-23T19:16:58.082Z,12.93
2022-10-23T19:19:29.923Z,8.83
2022-10-23T19:21:58.761Z,8.40
2022-10-23T19:24:29.930Z,9.33
2022-10-23T19:26:59.512Z,9.97
2022-10-23T19:29:28.479Z,10.63
2022-10-23T19:31:57.393Z,8.07
2022-10-23T19:34:27.821Z,12.37
2022-10-23T19:36:56.585Z,10.33
2022-10-23T19:39:26.001Z,9.87
2022-10-23T19:41:55.064Z,11.60
2022-10-23T19:44:23.769Z,10.33
2022-10-23T19:46:52.350Z,8.43
2022-10-23T19:49:21.070Z,8.57
2022-10-23T19:51:51.676Z,9.50
2022-10-23T19:54:20.872Z,9.37
2022-10-23T19:56:49.652Z,9.67
2022-10-23T19:59:18.782Z,7.30
2022-10-23T20:01:49.013Z,8.73
2022-10-23T20:04:18.556Z,9.77
2022-10-23T20:06:48.155Z,11.67
2022-10-23T20:09:18.220Z,10.03
2022-10-23T20:11:49.230Z,11.30
2022-10-23T20:14:18.843Z,7.00
2022-10-23T20:16:52.153Z,8.87
2022-10-23T20:19:23.451Z,11.67
2022-10-23T20:21:52.011Z,8.63
2022-10-23T20:24:22.799Z,11.10
2022-10-23T20:26:54.880Z,11.03
2022-10-23T20:29:24.700Z,15.97
2022-10-23T20:31:53.300Z,10.03
2022-10-23T20:34:21.866Z,9.20
2022-10-23T20:36:53.070Z,11.23
2022-10-23T20:39:25.565Z,12.97
2022-10-23T20:41:55.614Z,9.07
2022-10-23T20:44:24.822Z,10.17
2022-10-23T20:46:53.785Z,13.97
2022-10-23T20:49:23.221Z,13.23
2022-10-23T20:51:54.994Z,14.53
2022-10-23T20:54:28.747Z,21.23
2022-10-23T20:56:58.807Z,32.40
2022-10-23T20:59:27.296Z,27.10
2022-10-23T21:01:57.368Z,24.83
2022-10-23T21:04:27.547Z,33.40
2022-10-23T21:07:12.823Z,15.57
2022-10-23T21:09:42.771Z,13.13
2022-10-23T21:12:11.268Z,9.57
2022-10-23T21:14:39.910Z,9.37
2022-10-23T21:17:11.250Z,10.00
2022-10-23T21:19:40.605Z,11.07
2022-10-23T21:22:09.296Z,15.33
2022-10-23T21:24:41.967Z,10.73
2022-10-23T21:27:10.908Z,10.40
2022-10-23T21:29:40.052Z,10.17
2022-10-23T21:32:09.119Z,10.10
2022-10-23T21:34:38.168Z,9.73
2022-10-23T21:37:13.109Z,11.03
2022-10-23T21:39:44.491Z,10.03
2022-10-23T21:42:14.015Z,12.23
2022-10-23T21:44:42.691Z,9.93
2022-10-23T21:47:11.664Z,8.87
2022-10-23T21:49:40.243Z,11.73
2022-10-23T21:52:08.763Z,10.33
2022-10-23T21:54:37.467Z,11.27
2022-10-23T21:57:13.821Z,9.73
2022-10-23T21:59:42.357Z,10.07
2022-10-23T22:02:11.349Z,12.77
2022-10-23T22:04:40.528Z,11.97
2022-10-23T22:07:10.943Z,9.60
2022-10-23T22:09:39.812Z,13.70
2022-10-23T22:12:10.876Z,9.10
2022-10-23T22:14:40.156Z,10.03
2022-10-23T22:17:08.755Z,10.60
2022-10-23T22:19:37.343Z,11.27
2022-10-23T22:22:05.956Z,8.87
2022-10-23T22:24:34.644Z,10.57
2022-10-23T22:27:03.641Z,13.93
2022-10-23T22:29:33.651Z,10.43
2022-10-23T22:32:02.228Z,13.43
2022-10-23T22:34:51.755Z,11.37
2022-10-23T22:37:20.393Z,9.97
2022-10-23T22:39:54.001Z,9.37
2022-10-23T22:42:22.501Z,13.10
2022-10-23T22:44:52.455Z,9.97
2022-10-23T22:47:21.079Z,10.87
2022-10-23T22:49:49.726Z,10.57
2022-10-23T22:52:18.218Z,10.23
2022-10-23T22:54:46.725Z,10.97
2022-10-23T22:57:15.333Z,12.40
2022-10-23T22:59:44.748Z,12.23
2022-10-23T23:02:14.565Z,8.63
2022-10-23T23:04:43.341Z,9.90
2022-10-23T23:07:13.663Z,10.60
2022-10-23T23:09:43.993Z,7.63
2022-10-23T23:12:14.310Z,9.10
2022-10-23T23:14:43.488Z,8.13
2022-10-23T23:17:12.403Z,10.77
2022-10-23T23:19:42.207Z,10.60
2022-10-23T23:22:10.812Z,6.80
2022-10-23T23:24:40.147Z,9.20
2022-10-23T23:27:08.647Z,6.40
2022-10-23T23:29:37.358Z,6.53
2022-10-23T23:32:06.959Z,11.20
2022-10-23T23:34:35.657Z,17.67
2022-10-23T23:37:05.924Z,8.90
2022-10-23T23:39:34.443Z,6.57
2022-10-23T23:42:02.909Z,6.70
2022-10-23T23:44:31.390Z,11.07
2022-10-23T23:46:59.806Z,7.27
2022-10-23T23:49:28.254Z,6.97
2022-10-23T23:51:56.691Z,5.27
2022-10-23T23:54:26.468Z,6.57
2022-10-23T23:56:58.973Z,7.00
2022-10-23T23:59:27.429Z,12.13
